sensor_id;sensor_type;location;lat;lon;timestamp;temperature;humidity
2873;DHT22;1444;49.166;7.312;2023-06-14T00:00:36;14.00;80.30
2873;DHT22;1444;49.166;7.312;2023-06-14T00:03:04;13.90;80.10
2873;DHT22;1444;49.166;7.312;2023-06-14T00:05:31;13.80;80.40
2873;DHT22;1444;49.166;7.312;2023-06-14T00:07:59;13.70;81.10
2873;DHT22;1444;49.166;7.312;2023-06-14T00:10:26;13.60;80.90
2873;DHT22;1444;49.166;7.312;2023-06-14T00:15:26;13.50;80.40
2873;DHT22;1444;49.166;7.312;2023-06-14T00:17:53;13.50;81.30
2873;DHT22;1444;49.166;7.312;2023-06-14T00:20:22;13.40;81.30
2873;DHT22;1444;49.166;7.312;2023-06-14T00:22:48;13.40;80.30
2873;DHT22;1444;49.166;7.312;2023-06-14T00:25:15;13.50;81.10
2873;DHT22;1444;49.166;7.312;2023-06-14T00:27:42;13.40;81.40
2873;DHT22;1444;49.166;7.312;2023-06-14T00:30:10;13.40;81.20
2873;DHT22;1444;49.166;7.312;2023-06-14T00:32:38;13.40;81.30
2873;DHT22;1444;49.166;7.312;2023-06-14T00:35:05;13.30;81.00
2873;DHT22;1444;49.166;7.312;2023-06-14T00:37:33;13.30;81.30
2873;DHT22;1444;49.166;7.312;2023-06-14T00:40:00;13.30;81.90
2873;DHT22;1444;49.166;7.312;2023-06-14T00:42:28;13.10;82.10
2873;DHT22;1444;49.166;7.312;2023-06-14T00:44:54;13.00;82.20
2873;DHT22;1444;49.166;7.312;2023-06-14T00:47:22;12.90;82.50
2873;DHT22;1444;49.166;7.312;2023-06-14T00:49:51;12.80;82.90
2873;DHT22;1444;49.166;7.312;2023-06-14T00:52:18;12.80;83.10
2873;DHT22;1444;49.166;7.312;2023-06-14T00:54:46;12.70;83.60
2873;DHT22;1444;49.166;7.312;2023-06-14T00:57:13;12.60;83.40
2873;DHT22;1444;49.166;7.312;2023-06-14T00:59:43;12.50;83.50
2873;DHT22;1444;49.166;7.312;2023-06-14T01:04:37;12.60;83.70
2873;DHT22;1444;49.166;7.312;2023-06-14T01:07:12;12.60;83.60
2873;DHT22;1444;49.166;7.312;2023-06-14T01:12:21;12.60;83.30
2873;DHT22;1444;49.166;7.312;2023-06-14T01:14:51;12.60;83.00
2873;DHT22;1444;49.166;7.312;2023-06-14T01:17:21;12.50;83.60
2873;DHT22;1444;49.166;7.312;2023-06-14T01:19:51;12.50;83.30
2873;DHT22;1444;49.166;7.312;2023-06-14T01:24:54;12.40;83.60
2873;DHT22;1444;49.166;7.312;2023-06-14T01:27:22;12.40;84.00
2873;DHT22;1444;49.166;7.312;2023-06-14T01:32:19;12.40;83.40
2873;DHT22;1444;49.166;7.312;2023-06-14T01:34:46;12.50;83.10
2873;DHT22;1444;49.166;7.312;2023-06-14T01:37:13;12.40;83.90
2873;DHT22;1444;49.166;7.312;2023-06-14T01:39:42;12.40;83.50
2873;DHT22;1444;49.166;7.312;2023-06-14T01:42:13;12.40;83.10
2873;DHT22;1444;49.166;7.312;2023-06-14T01:44:44;12.40;83.70
2873;DHT22;1444;49.166;7.312;2023-06-14T01:47:12;12.40;84.00
2873;DHT22;1444;49.166;7.312;2023-06-14T01:49:39;12.30;83.20
2873;DHT22;1444;49.166;7.312;2023-06-14T01:52:06;12.30;83.40
2873;DHT22;1444;49.166;7.312;2023-06-14T01:54:35;12.20;83.20
2873;DHT22;1444;49.166;7.312;2023-06-14T01:57:03;12.20;83.60
2873;DHT22;1444;49.166;7.312;2023-06-14T01:59:33;12.10;83.10
2873;DHT22;1444;49.166;7.312;2023-06-14T02:02:03;12.20;83.80
2873;DHT22;1444;49.166;7.312;2023-06-14T02:04:29;12.20;83.90
2873;DHT22;1444;49.166;7.312;2023-06-14T02:06:56;12.20;83.30
2873;DHT22;1444;49.166;7.312;2023-06-14T02:09:23;12.20;84.10
2873;DHT22;1444;49.166;7.312;2023-06-14T02:11:50;12.20;83.40
2873;DHT22;1444;49.166;7.312;2023-06-14T02:14:17;12.20;83.50
2873;DHT22;1444;49.166;7.312;2023-06-14T02:16:46;12.10;83.70
2873;DHT22;1444;49.166;7.312;2023-06-14T02:19:14;12.00;83.70
2873;DHT22;1444;49.166;7.312;2023-06-14T02:24:08;11.90;84.20
2873;DHT22;1444;49.166;7.312;2023-06-14T02:26:35;11.90;84.10
2873;DHT22;1444;49.166;7.312;2023-06-14T02:29:03;11.90;83.60
2873;DHT22;1444;49.166;7.312;2023-06-14T02:31:30;11.70;83.80
2873;DHT22;1444;49.166;7.312;2023-06-14T02:33:59;11.80;84.20
2873;DHT22;1444;49.166;7.312;2023-06-14T02:36:26;11.80;83.70
2873;DHT22;1444;49.166;7.312;2023-06-14T02:38:53;11.70;84.10
2873;DHT22;1444;49.166;7.312;2023-06-14T02:41:20;11.70;83.50
2873;DHT22;1444;49.166;7.312;2023-06-14T02:43:47;11.70;84.50
2873;DHT22;1444;49.166;7.312;2023-06-14T02:46:14;11.70;84.50
2873;DHT22;1444;49.166;7.312;2023-06-14T02:48:41;11.70;83.90
2873;DHT22;1444;49.166;7.312;2023-06-14T02:51:09;11.60;84.30
2873;DHT22;1444;49.166;7.312;2023-06-14T02:53:36;11.60;83.90
2873;DHT22;1444;49.166;7.312;2023-06-14T02:56:03;11.50;84.10
2873;DHT22;1444;49.166;7.312;2023-06-14T02:58:30;11.50;83.90
2873;DHT22;1444;49.166;7.312;2023-06-14T03:00:58;11.50;84.70
2873;DHT22;1444;49.166;7.312;2023-06-14T03:03:28;11.50;84.20
2873;DHT22;1444;49.166;7.312;2023-06-14T03:05:55;11.50;84.30
2873;DHT22;1444;49.166;7.312;2023-06-14T03:08:23;11.50;84.70
2873;DHT22;1444;49.166;7.312;2023-06-14T03:10:53;11.60;85.10
2873;DHT22;1444;49.166;7.312;2023-06-14T03:13:21;11.60;85.60
2873;DHT22;1444;49.166;7.312;2023-06-14T03:15:48;11.60;85.90
2873;DHT22;1444;49.166;7.312;2023-06-14T03:18:16;11.60;85.30
2873;DHT22;1444;49.166;7.312;2023-06-14T03:20:44;11.50;85.20
2873;DHT22;1444;49.166;7.312;2023-06-14T03:23:12;11.50;84.90
2873;DHT22;1444;49.166;7.312;2023-06-14T03:25:40;11.40;85.00
2873;DHT22;1444;49.166;7.312;2023-06-14T03:28:08;11.30;84.60
2873;DHT22;1444;49.166;7.312;2023-06-14T03:30:35;11.30;84.40
2873;DHT22;1444;49.166;7.312;2023-06-14T03:33:02;11.30;84.10
2873;DHT22;1444;49.166;7.312;2023-06-14T03:35:30;11.30;84.50
2873;DHT22;1444;49.166;7.312;2023-06-14T03:37:57;12.00;84.80
2873;DHT22;1444;49.166;7.312;2023-06-14T03:40:23;11.30;84.70
2873;DHT22;1444;49.166;7.312;2023-06-14T03:42:54;11.20;85.00
2873;DHT22;1444;49.166;7.312;2023-06-14T03:45:21;11.20;84.30
2873;DHT22;1444;49.166;7.312;2023-06-14T03:47:48;12.20;85.40
2873;DHT22;1444;49.166;7.312;2023-06-14T03:50:16;11.20;85.40
2873;DHT22;1444;49.166;7.312;2023-06-14T03:52:43;11.20;86.20
2873;DHT22;1444;49.166;7.312;2023-06-14T03:55:10;11.30;86.50
2873;DHT22;1444;49.166;7.312;2023-06-14T03:57:38;11.30;86.80
2873;DHT22;1444;49.166;7.312;2023-06-14T04:00:09;11.40;87.00
2873;DHT22;1444;49.166;7.312;2023-06-14T04:02:37;11.40;87.60
2873;DHT22;1444;49.166;7.312;2023-06-14T04:05:04;11.50;88.10
2873;DHT22;1444;49.166;7.312;2023-06-14T04:07:34;11.60;88.60
2873;DHT22;1444;49.166;7.312;2023-06-14T04:12:34;11.70;87.70
2873;DHT22;1444;49.166;7.312;2023-06-14T04:15:00;11.70;87.80
2873;DHT22;1444;49.166;7.312;2023-06-14T04:17:29;11.80;86.70
2873;DHT22;1444;49.166;7.312;2023-06-14T04:19:58;11.80;86.10
2873;DHT22;1444;49.166;7.312;2023-06-14T04:22:25;11.80;86.70
2873;DHT22;1444;49.166;7.312;2023-06-14T04:24:53;11.70;86.80
2873;DHT22;1444;49.166;7.312;2023-06-14T04:27:21;11.60;86.70
2873;DHT22;1444;49.166;7.312;2023-06-14T04:29:50;11.60;87.40
2873;DHT22;1444;49.166;7.312;2023-06-14T04:32:23;11.60;88.00
2873;DHT22;1444;49.166;7.312;2023-06-14T04:34:53;11.60;88.00
2873;DHT22;1444;49.166;7.312;2023-06-14T04:37:20;11.60;88.70
2873;DHT22;1444;49.166;7.312;2023-06-14T04:39:47;11.70;88.40
2873;DHT22;1444;49.166;7.312;2023-06-14T04:42:14;11.70;88.60
2873;DHT22;1444;49.166;7.312;2023-06-14T04:44:42;11.80;88.40
2873;DHT22;1444;49.166;7.312;2023-06-14T04:47:09;12.00;89.00
2873;DHT22;1444;49.166;7.312;2023-06-14T04:52:06;12.10;89.40
2873;DHT22;1444;49.166;7.312;2023-06-14T04:54:35;12.30;89.50
2873;DHT22;1444;49.166;7.312;2023-06-14T04:57:04;12.40;89.90
2873;DHT22;1444;49.166;7.312;2023-06-14T04:59:31;12.50;90.70
2873;DHT22;1444;49.166;7.312;2023-06-14T05:01:59;12.70;91.30
2873;DHT22;1444;49.166;7.312;2023-06-14T05:04:26;12.90;91.60
2873;DHT22;1444;49.166;7.312;2023-06-14T05:06:54;13.20;91.70
2873;DHT22;1444;49.166;7.312;2023-06-14T05:09:25;13.40;91.70
2873;DHT22;1444;49.166;7.312;2023-06-14T05:11:52;13.50;91.50
2873;DHT22;1444;49.166;7.312;2023-06-14T05:14:18;13.80;91.20
2873;DHT22;1444;49.166;7.312;2023-06-14T05:16:45;14.00;91.40
2873;DHT22;1444;49.166;7.312;2023-06-14T05:19:14;14.10;91.40
2873;DHT22;1444;49.166;7.312;2023-06-14T05:21:43;14.30;90.90
2873;DHT22;1444;49.166;7.312;2023-06-14T05:24:10;14.40;90.90
2873;DHT22;1444;49.166;7.312;2023-06-14T05:26:38;14.50;91.00
2873;DHT22;1444;49.166;7.312;2023-06-14T05:29:05;14.70;90.90
2873;DHT22;1444;49.166;7.312;2023-06-14T05:31:32;14.80;90.70
2873;DHT22;1444;49.166;7.312;2023-06-14T05:33:59;15.00;90.80
2873;DHT22;1444;49.166;7.312;2023-06-14T05:36:25;15.20;91.10
2873;DHT22;1444;49.166;7.312;2023-06-14T05:38:54;15.30;91.00
2873;DHT22;1444;49.166;7.312;2023-06-14T05:41:23;15.40;91.10
2873;DHT22;1444;49.166;7.312;2023-06-14T05:43:52;15.60;90.50
2873;DHT22;1444;49.166;7.312;2023-06-14T05:46:19;15.70;90.70
2873;DHT22;1444;49.166;7.312;2023-06-14T05:48:47;15.90;91.10
2873;DHT22;1444;49.166;7.312;2023-06-14T05:51:15;16.10;90.70
2873;DHT22;1444;49.166;7.312;2023-06-14T05:53:44;16.20;90.40
2873;DHT22;1444;49.166;7.312;2023-06-14T05:56:11;16.40;90.00
2873;DHT22;1444;49.166;7.312;2023-06-14T05:58:38;16.50;89.70
2873;DHT22;1444;49.166;7.312;2023-06-14T06:01:07;16.70;88.70
2873;DHT22;1444;49.166;7.312;2023-06-14T06:03:33;16.90;87.00
2873;DHT22;1444;49.166;7.312;2023-06-14T06:06:01;17.10;87.70
2873;DHT22;1444;49.166;7.312;2023-06-14T06:08:28;17.30;86.30
2873;DHT22;1444;49.166;7.312;2023-06-14T06:10:55;16.40;84.80
2873;DHT22;1444;49.166;7.312;2023-06-14T06:13:23;17.60;86.20
2873;DHT22;1444;49.166;7.312;2023-06-14T06:15:49;17.70;85.40
2873;DHT22;1444;49.166;7.312;2023-06-14T06:18:18;17.90;84.30
2873;DHT22;1444;49.166;7.312;2023-06-14T06:20:45;18.00;84.60
2873;DHT22;1444;49.166;7.312;2023-06-14T06:23:13;18.20;82.70
2873;DHT22;1444;49.166;7.312;2023-06-14T06:25:39;18.40;82.20
2873;DHT22;1444;49.166;7.312;2023-06-14T06:28:06;18.50;82.90
2873;DHT22;1444;49.166;7.312;2023-06-14T06:30:33;18.60;81.60
2873;DHT22;1444;49.166;7.312;2023-06-14T06:33:01;18.80;80.40
2873;DHT22;1444;49.166;7.312;2023-06-14T06:35:30;18.90;80.20
2873;DHT22;1444;49.166;7.312;2023-06-14T06:37:58;19.10;79.60
2873;DHT22;1444;49.166;7.312;2023-06-14T06:40:25;19.30;78.30
2873;DHT22;1444;49.166;7.312;2023-06-14T06:42:52;19.40;78.60
2873;DHT22;1444;49.166;7.312;2023-06-14T06:45:22;19.60;77.40
2873;DHT22;1444;49.166;7.312;2023-06-14T06:47:50;19.80;78.50
2873;DHT22;1444;49.166;7.312;2023-06-14T06:50:18;20.00;78.20
2873;DHT22;1444;49.166;7.312;2023-06-14T06:52:46;20.20;77.60
2873;DHT22;1444;49.166;7.312;2023-06-14T06:55:13;20.40;76.30
2873;DHT22;1444;49.166;7.312;2023-06-14T06:57:40;20.50;75.50
2873;DHT22;1444;49.166;7.312;2023-06-14T07:00:08;20.70;75.30
2873;DHT22;1444;49.166;7.312;2023-06-14T07:02:35;21.00;74.50
2873;DHT22;1444;49.166;7.312;2023-06-14T07:05:03;21.20;75.40
2873;DHT22;1444;49.166;7.312;2023-06-14T07:07:30;21.40;75.00
2873;DHT22;1444;49.166;7.312;2023-06-14T07:09:58;21.70;73.20
2873;DHT22;1444;49.166;7.312;2023-06-14T07:12:25;21.90;73.60
2873;DHT22;1444;49.166;7.312;2023-06-14T07:14:52;22.00;72.50
2873;DHT22;1444;49.166;7.312;2023-06-14T07:17:19;22.30;72.60
2873;DHT22;1444;49.166;7.312;2023-06-14T07:19:46;22.50;71.00
2873;DHT22;1444;49.166;7.312;2023-06-14T07:22:13;22.60;70.20
2873;DHT22;1444;49.166;7.312;2023-06-14T07:24:40;22.80;70.40
2873;DHT22;1444;49.166;7.312;2023-06-14T07:27:08;23.00;71.10
2873;DHT22;1444;49.166;7.312;2023-06-14T07:29:36;23.10;69.90
2873;DHT22;1444;49.166;7.312;2023-06-14T07:32:03;23.40;69.50
2873;DHT22;1444;49.166;7.312;2023-06-14T07:34:30;23.40;67.20
2873;DHT22;1444;49.166;7.312;2023-06-14T07:39:25;23.50;68.30
2873;DHT22;1444;49.166;7.312;2023-06-14T07:41:51;23.70;68.40
2873;DHT22;1444;49.166;7.312;2023-06-14T07:44:19;23.80;66.80
2873;DHT22;1444;49.166;7.312;2023-06-14T07:46:46;24.00;68.50
2873;DHT22;1444;49.166;7.312;2023-06-14T07:49:14;24.00;67.30
2873;DHT22;1444;49.166;7.312;2023-06-14T07:51:41;24.20;68.10
2873;DHT22;1444;49.166;7.312;2023-06-14T07:54:09;24.30;67.70
2873;DHT22;1444;49.166;7.312;2023-06-14T07:56:36;24.40;65.90
2873;DHT22;1444;49.166;7.312;2023-06-14T07:59:03;24.60;66.20
2873;DHT22;1444;49.166;7.312;2023-06-14T08:01:32;24.70;66.50
2873;DHT22;1444;49.166;7.312;2023-06-14T08:03:59;24.90;65.30
2873;DHT22;1444;49.166;7.312;2023-06-14T08:06:26;25.10;66.30
2873;DHT22;1444;49.166;7.312;2023-06-14T08:08:53;25.30;67.30
2873;DHT22;1444;49.166;7.312;2023-06-14T08:11:20;25.40;66.30
2873;DHT22;1444;49.166;7.312;2023-06-14T08:13:49;25.50;64.40
2873;DHT22;1444;49.166;7.312;2023-06-14T08:16:16;25.60;64.10
2873;DHT22;1444;49.166;7.312;2023-06-14T08:18:44;25.60;63.30
2873;DHT22;1444;49.166;7.312;2023-06-14T08:23:40;25.70;63.40
2873;DHT22;1444;49.166;7.312;2023-06-14T08:26:08;25.80;63.90
2873;DHT22;1444;49.166;7.312;2023-06-14T08:28:35;25.90;62.40
2873;DHT22;1444;49.166;7.312;2023-06-14T08:31:02;26.00;63.30
2873;DHT22;1444;49.166;7.312;2023-06-14T08:33:28;26.10;63.60
2873;DHT22;1444;49.166;7.312;2023-06-14T08:35:59;26.20;62.30
2873;DHT22;1444;49.166;7.312;2023-06-14T08:38:26;26.30;64.30
2873;DHT22;1444;49.166;7.312;2023-06-14T08:40:57;26.40;62.10
2873;DHT22;1444;49.166;7.312;2023-06-14T08:43:24;26.60;62.70
2873;DHT22;1444;49.166;7.312;2023-06-14T08:45:56;26.70;62.90
2873;DHT22;1444;49.166;7.312;2023-06-14T08:48:26;26.90;62.00
2873;DHT22;1444;49.166;7.312;2023-06-14T08:50:54;27.00;61.90
2873;DHT22;1444;49.166;7.312;2023-06-14T08:53:31;27.00;61.70
2873;DHT22;1444;49.166;7.312;2023-06-14T08:55:59;27.20;62.00
2873;DHT22;1444;49.166;7.312;2023-06-14T08:58:27;27.30;60.80
2873;DHT22;1444;49.166;7.312;2023-06-14T09:00:55;27.40;59.60
2873;DHT22;1444;49.166;7.312;2023-06-14T09:03:23;27.50;61.10
2873;DHT22;1444;49.166;7.312;2023-06-14T09:05:56;27.70;61.30
2873;DHT22;1444;49.166;7.312;2023-06-14T09:08:25;27.80;61.00
2873;DHT22;1444;49.166;7.312;2023-06-14T09:10:55;27.90;59.20
2873;DHT22;1444;49.166;7.312;2023-06-14T09:13:21;28.00;58.80
2873;DHT22;1444;49.166;7.312;2023-06-14T09:15:49;28.00;58.00
2873;DHT22;1444;49.166;7.312;2023-06-14T09:18:16;28.00;59.90
2873;DHT22;1444;49.166;7.312;2023-06-14T09:20:43;28.10;59.70
2873;DHT22;1444;49.166;7.312;2023-06-14T09:23:13;28.10;57.60
2873;DHT22;1444;49.166;7.312;2023-06-14T09:25:45;28.20;60.20
2873;DHT22;1444;49.166;7.312;2023-06-14T09:28:13;28.20;57.80
2873;DHT22;1444;49.166;7.312;2023-06-14T09:30:40;28.20;57.80
2873;DHT22;1444;49.166;7.312;2023-06-14T09:33:07;28.20;57.70
2873;DHT22;1444;49.166;7.312;2023-06-14T09:35:34;28.20;57.00
2873;DHT22;1444;49.166;7.312;2023-06-14T09:38:01;28.30;57.50
2873;DHT22;1444;49.166;7.312;2023-06-14T09:40:28;28.20;56.80
2873;DHT22;1444;49.166;7.312;2023-06-14T09:43:00;28.40;58.20
2873;DHT22;1444;49.166;7.312;2023-06-14T09:45:28;28.50;58.00
2873;DHT22;1444;49.166;7.312;2023-06-14T09:47:58;28.70;57.10
2873;DHT22;1444;49.166;7.312;2023-06-14T09:50:24;28.70;57.00
2873;DHT22;1444;49.166;7.312;2023-06-14T09:52:52;28.80;55.60
2873;DHT22;1444;49.166;7.312;2023-06-14T09:55:22;28.80;56.60
2873;DHT22;1444;49.166;7.312;2023-06-14T09:57:50;28.90;55.60
2873;DHT22;1444;49.166;7.312;2023-06-14T10:00:19;29.00;56.10
2873;DHT22;1444;49.166;7.312;2023-06-14T10:02:54;29.00;56.20
2873;DHT22;1444;49.166;7.312;2023-06-14T10:05:23;29.00;54.10
2873;DHT22;1444;49.166;7.312;2023-06-14T10:07:53;29.10;56.20
2873;DHT22;1444;49.166;7.312;2023-06-14T10:10:22;29.10;54.70
2873;DHT22;1444;49.166;7.312;2023-06-14T10:12:49;29.20;56.20
2873;DHT22;1444;49.166;7.312;2023-06-14T10:15:20;29.40;56.30
2873;DHT22;1444;49.166;7.312;2023-06-14T10:17:53;29.50;55.10
2873;DHT22;1444;49.166;7.312;2023-06-14T10:20:27;29.70;54.90
2873;DHT22;1444;49.166;7.312;2023-06-14T10:22:59;29.80;52.20
2873;DHT22;1444;49.166;7.312;2023-06-14T10:25:29;29.90;54.30
2873;DHT22;1444;49.166;7.312;2023-06-14T10:28:20;29.90;54.10
2873;DHT22;1444;49.166;7.312;2023-06-14T10:31:05;30.00;53.90
2873;DHT22;1444;49.166;7.312;2023-06-14T10:33:35;29.90;55.50
2873;DHT22;1444;49.166;7.312;2023-06-14T10:36:24;30.00;54.50
2873;DHT22;1444;49.166;7.312;2023-06-14T10:39:01;30.00;52.80
2873;DHT22;1444;49.166;7.312;2023-06-14T10:41:29;29.90;54.50
2873;DHT22;1444;49.166;7.312;2023-06-14T10:47:06;29.80;55.00
2873;DHT22;1444;49.166;7.312;2023-06-14T10:49:41;29.90;54.20
2873;DHT22;1444;49.166;7.312;2023-06-14T10:52:09;29.80;52.30
2873;DHT22;1444;49.166;7.312;2023-06-14T10:55:02;29.90;54.10
2873;DHT22;1444;49.166;7.312;2023-06-14T10:57:31;29.70;53.50
2873;DHT22;1444;49.166;7.312;2023-06-14T10:59:58;29.70;51.70
2873;DHT22;1444;49.166;7.312;2023-06-14T11:05:28;29.60;51.70
2873;DHT22;1444;49.166;7.312;2023-06-14T11:10:59;29.50;52.50
2873;DHT22;1444;49.166;7.312;2023-06-14T11:13:26;29.50;53.60
2873;DHT22;1444;49.166;7.312;2023-06-14T11:15:54;29.50;51.90
2873;DHT22;1444;49.166;7.312;2023-06-14T11:18:23;29.50;50.90
2873;DHT22;1444;49.166;7.312;2023-06-14T11:20:52;29.50;51.30
2873;DHT22;1444;49.166;7.312;2023-06-14T11:23:18;29.70;52.40
2873;DHT22;1444;49.166;7.312;2023-06-14T11:25:50;29.80;50.90
2873;DHT22;1444;49.166;7.312;2023-06-14T11:28:16;30.00;53.20
2873;DHT22;1444;49.166;7.312;2023-06-14T11:30:45;29.80;50.00
2873;DHT22;1444;49.166;7.312;2023-06-14T11:33:17;29.80;51.40
2873;DHT22;1444;49.166;7.312;2023-06-14T11:35:45;29.80;50.90
2873;DHT22;1444;49.166;7.312;2023-06-14T11:38:13;29.90;51.30
2873;DHT22;1444;49.166;7.312;2023-06-14T11:40:40;29.90;53.10
2873;DHT22;1444;49.166;7.312;2023-06-14T11:43:07;30.00;53.20
2873;DHT22;1444;49.166;7.312;2023-06-14T11:45:33;29.80;51.20
2873;DHT22;1444;49.166;7.312;2023-06-14T11:48:00;29.80;52.40
2873;DHT22;1444;49.166;7.312;2023-06-14T11:50:28;29.90;52.30
2873;DHT22;1444;49.166;7.312;2023-06-14T11:52:55;29.80;51.50
2873;DHT22;1444;49.166;7.312;2023-06-14T11:55:24;29.80;51.10
2873;DHT22;1444;49.166;7.312;2023-06-14T11:57:51;29.70;53.00
2873;DHT22;1444;49.166;7.312;2023-06-14T12:00:25;29.70;52.50
2873;DHT22;1444;49.166;7.312;2023-06-14T12:02:53;29.90;52.40
2873;DHT22;1444;49.166;7.312;2023-06-14T12:05:22;30.00;51.10
2873;DHT22;1444;49.166;7.312;2023-06-14T12:07:50;29.90;51.70
2873;DHT22;1444;49.166;7.312;2023-06-14T12:10:19;29.80;51.30
2873;DHT22;1444;49.166;7.312;2023-06-14T12:12:48;29.70;50.80
2873;DHT22;1444;49.166;7.312;2023-06-14T12:15:15;30.00;53.50
2873;DHT22;1444;49.166;7.312;2023-06-14T12:17:43;30.00;52.30
2873;DHT22;1444;49.166;7.312;2023-06-14T12:20:12;30.10;51.40
2873;DHT22;1444;49.166;7.312;2023-06-14T12:22:50;30.10;50.70
2873;DHT22;1444;49.166;7.312;2023-06-14T12:25:24;30.00;50.70
2873;DHT22;1444;49.166;7.312;2023-06-14T12:27:54;29.00;50.80
2873;DHT22;1444;49.166;7.312;2023-06-14T12:30:21;30.20;51.20
2873;DHT22;1444;49.166;7.312;2023-06-14T12:32:48;30.10;51.30
2873;DHT22;1444;49.166;7.312;2023-06-14T12:35:16;30.10;53.50
2873;DHT22;1444;49.166;7.312;2023-06-14T12:37:43;30.10;50.70
2873;DHT22;1444;49.166;7.312;2023-06-14T12:40:11;30.20;52.00
2873;DHT22;1444;49.166;7.312;2023-06-14T12:42:40;30.00;49.60
2873;DHT22;1444;49.166;7.312;2023-06-14T12:45:09;30.00;50.70
2873;DHT22;1444;49.166;7.312;2023-06-14T12:47:36;30.00;50.00
2873;DHT22;1444;49.166;7.312;2023-06-14T12:50:03;29.90;51.80
2873;DHT22;1444;49.166;7.312;2023-06-14T12:52:30;29.90;52.70
2873;DHT22;1444;49.166;7.312;2023-06-14T12:55:01;30.00;52.80
2873;DHT22;1444;49.166;7.312;2023-06-14T12:57:28;30.10;50.90
2873;DHT22;1444;49.166;7.312;2023-06-14T12:59:55;30.00;50.50
2873;DHT22;1444;49.166;7.312;2023-06-14T13:02:23;30.00;50.80
2873;DHT22;1444;49.166;7.312;2023-06-14T13:04:51;29.90;51.50
2873;DHT22;1444;49.166;7.312;2023-06-14T13:07:18;30.00;51.00
2873;DHT22;1444;49.166;7.312;2023-06-14T13:12:12;30.00;50.30
2873;DHT22;1444;49.166;7.312;2023-06-14T13:14:39;30.10;50.40
2873;DHT22;1444;49.166;7.312;2023-06-14T13:17:07;30.10;49.80
2873;DHT22;1444;49.166;7.312;2023-06-14T13:19:35;30.10;50.50
2873;DHT22;1444;49.166;7.312;2023-06-14T13:22:02;29.90;50.10
2873;DHT22;1444;49.166;7.312;2023-06-14T13:24:29;29.80;50.00
2873;DHT22;1444;49.166;7.312;2023-06-14T13:26:57;29.70;51.00
2873;DHT22;1444;49.166;7.312;2023-06-14T13:29:24;29.60;50.10
2873;DHT22;1444;49.166;7.312;2023-06-14T13:34:19;29.50;51.80
2873;DHT22;1444;49.166;7.312;2023-06-14T13:36:48;29.50;52.50
2873;DHT22;1444;49.166;7.312;2023-06-14T13:39:15;29.60;52.20
2873;DHT22;1444;49.166;7.312;2023-06-14T13:41:42;29.70;50.70
2873;DHT22;1444;49.166;7.312;2023-06-14T13:44:08;29.80;51.40
2873;DHT22;1444;49.166;7.312;2023-06-14T13:46:36;29.90;50.10
2873;DHT22;1444;49.166;7.312;2023-06-14T13:49:03;29.90;50.90
2873;DHT22;1444;49.166;7.312;2023-06-14T13:51:30;29.90;50.20
2873;DHT22;1444;49.166;7.312;2023-06-14T13:53:59;29.90;48.90
2873;DHT22;1444;49.166;7.312;2023-06-14T13:56:26;29.70;47.80
2873;DHT22;1444;49.166;7.312;2023-06-14T13:58:53;29.80;49.20
2873;DHT22;1444;49.166;7.312;2023-06-14T14:01:20;29.70;47.40
2873;DHT22;1444;49.166;7.312;2023-06-14T14:03:48;29.90;47.00
2873;DHT22;1444;49.166;7.312;2023-06-14T14:06:16;30.00;49.60
2873;DHT22;1444;49.166;7.312;2023-06-14T14:08:42;30.10;47.30
2873;DHT22;1444;49.166;7.312;2023-06-14T14:11:11;30.00;48.30
2873;DHT22;1444;49.166;7.312;2023-06-14T14:13:39;29.80;48.10
2873;DHT22;1444;49.166;7.312;2023-06-14T14:16:06;29.70;50.30
2873;DHT22;1444;49.166;7.312;2023-06-14T14:18:33;29.70;49.30
2873;DHT22;1444;49.166;7.312;2023-06-14T14:21:00;29.80;49.30
2873;DHT22;1444;49.166;7.312;2023-06-14T14:23:27;29.80;50.50
2873;DHT22;1444;49.166;7.312;2023-06-14T14:25:54;29.90;50.60
2873;DHT22;1444;49.166;7.312;2023-06-14T14:28:22;30.00;49.60
2873;DHT22;1444;49.166;7.312;2023-06-14T14:30:49;29.70;50.80
2873;DHT22;1444;49.166;7.312;2023-06-14T14:33:16;29.70;50.20
2873;DHT22;1444;49.166;7.312;2023-06-14T14:35:43;29.70;49.50
2873;DHT22;1444;49.166;7.312;2023-06-14T14:38:11;29.80;50.20
2873;DHT22;1444;49.166;7.312;2023-06-14T14:40:39;30.20;50.10
2873;DHT22;1444;49.166;7.312;2023-06-14T14:43:05;29.90;50.60
2873;DHT22;1444;49.166;7.312;2023-06-14T14:45:34;30.00;49.70
2873;DHT22;1444;49.166;7.312;2023-06-14T14:48:01;30.00;49.80
2873;DHT22;1444;49.166;7.312;2023-06-14T14:50:28;30.00;49.10
2873;DHT22;1444;49.166;7.312;2023-06-14T14:52:55;29.90;48.50
2873;DHT22;1444;49.166;7.312;2023-06-14T14:55:22;29.80;48.80
2873;DHT22;1444;49.166;7.312;2023-06-14T14:57:49;29.80;49.60
2873;DHT22;1444;49.166;7.312;2023-06-14T15:00:17;29.80;51.00
2873;DHT22;1444;49.166;7.312;2023-06-14T15:02:45;29.80;50.90
2873;DHT22;1444;49.166;7.312;2023-06-14T15:05:12;29.80;51.00
2873;DHT22;1444;49.166;7.312;2023-06-14T15:07:39;29.70;51.60
2873;DHT22;1444;49.166;7.312;2023-06-14T15:10:07;29.60;51.90
2873;DHT22;1444;49.166;7.312;2023-06-14T15:12:35;29.50;50.30
2873;DHT22;1444;49.166;7.312;2023-06-14T15:15:02;29.30;51.10
2873;DHT22;1444;49.166;7.312;2023-06-14T15:17:29;29.40;50.90
2873;DHT22;1444;49.166;7.312;2023-06-14T15:19:58;29.40;52.20
2873;DHT22;1444;49.166;7.312;2023-06-14T15:22:25;29.30;51.10
2873;DHT22;1444;49.166;7.312;2023-06-14T15:24:52;29.30;51.10
2873;DHT22;1444;49.166;7.312;2023-06-14T15:27:19;29.20;50.90
2873;DHT22;1444;49.166;7.312;2023-06-14T15:29:46;29.30;53.60
2873;DHT22;1444;49.166;7.312;2023-06-14T15:32:13;29.40;52.80
2873;DHT22;1444;49.166;7.312;2023-06-14T15:34:40;29.40;51.30
2873;DHT22;1444;49.166;7.312;2023-06-14T15:37:08;29.40;51.70
2873;DHT22;1444;49.166;7.312;2023-06-14T15:39:35;29.40;50.70
2873;DHT22;1444;49.166;7.312;2023-06-14T15:42:03;29.40;50.30
2873;DHT22;1444;49.166;7.312;2023-06-14T15:44:29;29.50;50.30
2873;DHT22;1444;49.166;7.312;2023-06-14T15:46:56;29.50;50.00
2873;DHT22;1444;49.166;7.312;2023-06-14T15:49:23;29.40;50.30
2873;DHT22;1444;49.166;7.312;2023-06-14T15:51:50;29.30;50.30
2873;DHT22;1444;49.166;7.312;2023-06-14T15:54:18;29.10;50.50
2873;DHT22;1444;49.166;7.312;2023-06-14T15:56:45;29.10;50.20
2873;DHT22;1444;49.166;7.312;2023-06-14T15:59:12;28.90;50.70
2873;DHT22;1444;49.166;7.312;2023-06-14T16:01:38;28.90;50.60
2873;DHT22;1444;49.166;7.312;2023-06-14T16:04:05;28.80;50.70
2873;DHT22;1444;49.166;7.312;2023-06-14T16:06:32;29.00;51.70
2873;DHT22;1444;49.166;7.312;2023-06-14T16:09:01;28.90;50.40
2873;DHT22;1444;49.166;7.312;2023-06-14T16:11:29;28.90;50.60
2873;DHT22;1444;49.166;7.312;2023-06-14T16:13:56;29.00;51.20
2873;DHT22;1444;49.166;7.312;2023-06-14T16:16:23;29.00;50.60
2873;DHT22;1444;49.166;7.312;2023-06-14T16:18:50;29.10;51.10
2873;DHT22;1444;49.166;7.312;2023-06-14T16:21:16;29.10;50.10
2873;DHT22;1444;49.166;7.312;2023-06-14T16:23:43;28.90;50.10
2873;DHT22;1444;49.166;7.312;2023-06-14T16:26:11;29.00;50.70
2873;DHT22;1444;49.166;7.312;2023-06-14T16:28:40;28.90;50.10
2873;DHT22;1444;49.166;7.312;2023-06-14T16:31:08;28.80;49.70
2873;DHT22;1444;49.166;7.312;2023-06-14T16:33:35;28.60;49.80
2873;DHT22;1444;49.166;7.312;2023-06-14T16:36:02;28.60;50.30
2873;DHT22;1444;49.166;7.312;2023-06-14T16:38:29;28.50;49.50
2873;DHT22;1444;49.166;7.312;2023-06-14T16:40:56;28.50;51.70
2873;DHT22;1444;49.166;7.312;2023-06-14T16:43:23;26.20;49.10
2873;DHT22;1444;49.166;7.312;2023-06-14T16:45:51;28.30;50.10